Time;durP1;ratioP1;P1;durP2;ratioP2;P2;SDS_P1;SDS_P2;PMS_P1;PMS_P2;Temp;Humidity;BMP_temperature;BMP_pressure;BME280_temperature;BME280_humidity;BME280_pressure;Samples;Min_cycle;Max_cycle;Signal;HPM_P1;HPM_P2
2022/06/18 00:02:20;;;;;;;23.88;5.30;;;;;;;;;;5089501;28;20024;-74
2022/06/18 00:04:46;;;;;;;19.05;5.10;;;;;;;;;;5092756;28;20636;-80
2022/06/18 00:07:19;;;;;;;29.58;5.30;;;;;;;;;;5092719;28;20479;-73
2022/06/18 00:09:55;;;;;;;35.45;5.63;;;;;;;;;;5092541;28;20020;-78
2022/06/18 00:15:20;;;;;;;30.23;4.90;;;;;;;;;;5092820;28;20597;-78
2022/06/18 00:17:46;;;;;;;26.92;5.57;;;;;;;;;;5092874;28;20036;-74
2022/06/18 00:20:13;;;;;;;26.23;5.00;;;;;;;;;;5092520;28;20028;-80
2022/06/18 00:22:42;;;;;;;25.23;5.00;;;;;;;;;;5074454;28;20442;-74
2022/06/18 00:25:33;;;;;;;23.67;4.80;;;;;;;;;;5092454;28;20030;-79
2022/06/18 00:28:00;;;;;;;31.48;5.93;;;;;;;;;;5080798;28;20040;-77
2022/06/18 00:30:27;;;;;;;27.98;5.03;;;;;;;;;;5092312;28;20548;-79
2022/06/18 00:32:53;;;;;;;25.95;5.57;;;;;;;;;;5092613;28;20028;-79
2022/06/18 00:35:19;;;;;;;24.73;4.85;;;;;;;;;;5092429;28;20495;-79
2022/06/18 00:37:45;;;;;;;30.88;5.35;;;;;;;;;;5092191;28;20106;-80
2022/06/18 00:40:21;;;;;;;25.77;5.53;;;;;;;;;;5092293;28;20047;-75
2022/06/18 00:42:49;;;;;;;24.98;5.63;;;;;;;;;;5093091;28;20376;-77
2022/06/18 00:45:23;;;;;;;29.27;5.65;;;;;;;;;;5092037;28;20055;-75
2022/06/18 00:48:19;;;;;;;26.65;4.72;;;;;;;;;;5092418;28;20087;-78
2022/06/18 00:51:06;;;;;;;26.65;5.30;;;;;;;;;;5091770;28;20491;-79
2022/06/18 00:53:42;;;;;;;22.98;4.82;;;;;;;;;;5074137;28;20027;-77
2022/06/18 00:56:29;;;;;;;29.10;5.05;;;;;;;;;;5092395;28;20047;-80
2022/06/18 00:59:31;;;;;;;23.73;4.57;;;;;;;;;;5092675;28;20097;-80
2022/06/18 01:01:58;;;;;;;21.52;4.82;;;;;;;;;;4990165;28;20479;-74
2022/06/18 01:04:24;;;;;;;30.63;5.43;;;;;;;;;;5072925;28;20040;-73
2022/06/18 01:06:55;;;;;;;28.05;5.22;;;;;;;;;;5092088;28;20047;-80
2022/06/18 01:09:20;;;;;;;29.52;5.13;;;;;;;;;;5091999;28;20036;-78
2022/06/18 01:11:49;;;;;;;30.98;5.15;;;;;;;;;;5091362;28;20494;-79
2022/06/18 01:14:17;;;;;;;28.45;5.30;;;;;;;;;;5091342;28;20383;-79
2022/06/18 01:16:44;;;;;;;26.48;4.68;;;;;;;;;;5091710;28;20020;-78
2022/06/18 01:19:21;;;;;;;26.98;4.53;;;;;;;;;;5091988;28;20032;-79
2022/06/18 01:22:00;;;;;;;27.45;5.20;;;;;;;;;;5091251;28;20029;-79
2022/06/18 01:24:39;;;;;;;23.63;4.93;;;;;;;;;;5073598;28;20032;-80
2022/06/18 01:27:08;;;;;;;21.55;4.65;;;;;;;;;;5091133;28;20093;-76
2022/06/18 01:29:34;;;;;;;22.08;4.93;;;;;;;;;;5091495;28;20024;-79
2022/06/18 01:32:01;;;;;;;26.52;4.47;;;;;;;;;;5091493;28;20507;-78
2022/06/18 01:34:27;;;;;;;25.50;4.72;;;;;;;;;;5091503;28;20048;-80
2022/06/18 01:36:53;;;;;;;21.35;4.68;;;;;;;;;;5091072;28;20051;-80
2022/06/18 01:39:24;;;;;;;20.85;4.60;;;;;;;;;;5091401;28;20492;-79
2022/06/18 01:41:55;;;;;;;20.98;4.47;;;;;;;;;;5091404;28;20038;-80
2022/06/18 01:44:31;;;;;;;24.63;4.47;;;;;;;;;;5091510;28;20107;-79
2022/06/18 01:47:07;;;;;;;19.70;4.18;;;;;;;;;;5090785;28;20062;-80
2022/06/18 01:49:37;;;;;;;18.83;4.65;;;;;;;;;;5091006;28;20024;-77
2022/06/18 01:52:06;;;;;;;23.67;4.88;;;;;;;;;;5090868;28;20059;-81
2022/06/18 01:54:38;;;;;;;17.13;4.18;;;;;;;;;;5091453;28;20476;-80
2022/06/18 01:57:12;;;;;;;25.30;4.78;;;;;;;;;;5090716;28;20031;-80
2022/06/18 01:59:44;;;;;;;20.60;4.45;;;;;;;;;;5090998;28;20551;-80
2022/06/18 02:02:09;;;;;;;23.10;4.28;;;;;;;;;;5090886;28;20027;-80
2022/06/18 02:04:35;;;;;;;23.85;4.60;;;;;;;;;;5091233;28;20028;-80
2022/06/18 02:07:03;;;;;;;17.60;4.32;;;;;;;;;;5090172;28;20166;-80
2022/06/18 02:10:01;;;;;;;19.20;3.92;;;;;;;;;;5091010;28;20107;-79
2022/06/18 02:12:33;;;;;;;15.93;4.18;;;;;;;;;;5090476;28;20032;-79
2022/06/18 02:15:03;;;;;;;17.88;4.07;;;;;;;;;;5090871;28;20024;-74
2022/06/18 02:17:30;;;;;;;14.38;4.03;;;;;;;;;;5090266;28;20047;-73
2022/06/18 02:20:08;;;;;;;17.48;3.95;;;;;;;;;;5090774;28;20039;-73
2022/06/18 02:22:40;;;;;;;12.57;3.70;;;;;;;;;;5090065;28;20487;-73
2022/06/18 02:25:07;;;;;;;11.55;3.90;;;;;;;;;;5090176;28;20097;-73
2022/06/18 02:27:32;;;;;;;18.40;4.05;;;;;;;;;;5089105;28;20035;-73
2022/06/18 02:29:58;;;;;;;15.55;4.40;;;;;;;;;;5090227;28;20032;-73
2022/06/18 02:32:31;;;;;;;12.13;3.95;;;;;;;;;;5090035;28;20028;-74
2022/06/18 02:34:56;;;;;;;15.43;4.00;;;;;;;;;;5090399;28;20085;-73
2022/06/18 02:37:25;;;;;;;13.07;4.05;;;;;;;;;;5089527;28;20028;-75
2022/06/18 02:40:00;;;;;;;16.23;3.70;;;;;;;;;;5090320;28;20168;-73
2022/06/18 02:42:30;;;;;;;12.82;3.45;;;;;;;;;;5089802;28;20514;-73
2022/06/18 02:44:57;;;;;;;14.13;3.70;;;;;;;;;;5090128;28;20038;-73
2022/06/18 02:47:23;;;;;;;14.85;3.92;;;;;;;;;;5091385;28;20055;-74
2022/06/18 02:49:59;;;;;;;10.65;3.55;;;;;;;;;;5089788;28;20036;-73
2022/06/18 02:52:30;;;;;;;12.93;3.35;;;;;;;;;;5089479;28;20111;-72
2022/06/18 02:55:00;;;;;;;14.95;3.55;;;;;;;;;;5071837;28;20063;-74
2022/06/18 02:57:27;;;;;;;9.75;3.10;;;;;;;;;;5089560;28;20027;-73
2022/06/18 02:59:53;;;;;;;9.30;3.42;;;;;;;;;;5089976;28;20034;-79
2022/06/18 03:02:18;;;;;;;12.02;3.80;;;;;;;;;;5089603;28;20020;-78
2022/06/18 03:04:44;;;;;;;8.82;3.40;;;;;;;;;;5089789;28;20513;-80
2022/06/18 03:07:10;;;;;;;11.43;3.70;;;;;;;;;;5089200;28;20508;-78
2022/06/18 03:12:06;;;;;;;8.95;3.63;;;;;;;;;;5089968;28;20036;-73
2022/06/18 03:12:20;;;;;;;8.23;3.30;;;;;;;;;;5089341;28;20109;-73
2022/06/18 03:14:46;;;;;;;7.18;3.17;;;;;;;;;;5089827;28;20109;-73
2022/06/18 03:17:14;;;;;;;9.35;3.30;;;;;;;;;;5071370;28;20052;-73
2022/06/18 03:19:46;;;;;;;12.38;3.28;;;;;;;;;;5089613;28;20521;-78
2022/06/18 03:22:13;;;;;;;12.82;3.45;;;;;;;;;;5070998;28;20066;-75
2022/06/18 03:24:42;;;;;;;12.07;3.60;;;;;;;;;;5089471;28;20115;-79
2022/06/18 03:27:09;;;;;;;9.80;3.35;;;;;;;;;;5089436;28;20032;-77
2022/06/18 03:29:35;;;;;;;9.70;3.10;;;;;;;;;;5090082;28;20054;-80
2022/06/18 03:32:01;;;;;;;7.93;3.05;;;;;;;;;;5089541;28;20390;-80
2022/06/18 03:34:27;;;;;;;11.95;3.45;;;;;;;;;;5055161;28;20023;-81
2022/06/18 03:36:52;;;;;;;11.35;2.97;;;;;;;;;;5089251;28;20028;-81
2022/06/18 03:39:18;;;;;;;11.45;3.30;;;;;;;;;;5093624;28;20030;-79
2022/06/18 03:41:43;;;;;;;8.32;2.97;;;;;;;;;;5093348;28;20107;-73
2022/06/18 03:44:08;;;;;;;8.38;3.10;;;;;;;;;;5093380;28;20403;-81
2022/06/18 03:46:38;;;;;;;11.02;3.17;;;;;;;;;;5093528;28;20423;-77
2022/06/18 03:49:04;;;;;;;11.02;3.42;;;;;;;;;;5092888;28;20127;-80
2022/06/18 03:51:31;;;;;;;12.65;3.42;;;;;;;;;;5093283;28;20032;-80
2022/06/18 03:53:57;;;;;;;7.95;3.15;;;;;;;;;;5093378;28;20020;-80
2022/06/18 03:56:25;;;;;;;10.55;3.13;;;;;;;;;;5093181;28;20028;-80
2022/06/18 03:58:51;;;;;;;8.43;3.55;;;;;;;;;;5093220;28;20024;-81
2022/06/18 04:01:30;;;;;;;10.40;3.42;;;;;;;;;;5093331;28;20024;-79
2022/06/18 04:03:55;;;;;;;12.30;3.42;;;;;;;;;;5092997;28;20032;-81
2022/06/18 04:06:21;;;;;;;19.88;3.55;;;;;;;;;;5092780;28;20103;-80
2022/06/18 04:08:47;;;;;;;17.27;3.55;;;;;;;;;;5092791;28;20107;-81
2022/06/18 04:11:13;;;;;;;9.02;3.30;;;;;;;;;;5093187;28;20116;-77
2022/06/18 04:13:39;;;;;;;12.68;3.72;;;;;;;;;;5092945;28;20016;-81
2022/06/18 04:16:06;;;;;;;9.90;3.60;;;;;;;;;;5093283;28;20016;-81
2022/06/18 04:18:32;;;;;;;9.85;3.00;;;;;;;;;;5092875;28;20623;-79
2022/06/18 04:20:59;;;;;;;10.20;3.28;;;;;;;;;;5092634;28;20024;-80
2022/06/18 04:23:25;;;;;;;14.32;3.45;;;;;;;;;;5092423;28;20110;-80
2022/06/18 04:25:50;;;;;;;9.23;3.30;;;;;;;;;;5092675;28;20107;-79
2022/06/18 04:28:17;;;;;;;12.75;3.70;;;;;;;;;;5092430;28;20016;-80
2022/06/18 04:30:43;;;;;;;7.47;3.22;;;;;;;;;;5092742;28;20032;-80
2022/06/18 04:33:09;;;;;;;10.93;3.25;;;;;;;;;;5092413;28;20024;-81
2022/06/18 04:35:35;;;;;;;9.02;3.67;;;;;;;;;;5092518;28;20081;-81
2022/06/18 04:38:02;;;;;;;8.35;3.17;;;;;;;;;;5091917;28;20476;-81
2022/06/18 04:40:32;;;;;;;10.88;3.25;;;;;;;;;;5092495;28;20522;-80
2022/06/18 04:42:59;;;;;;;;;;;;;;;;;;5092975;28;20036;-81
2022/06/18 04:45:24;;;;;;;9.80;3.33;;;;;;;;;;5092458;28;20372;-81
2022/06/18 04:47:49;;;;;;;6.28;3.08;;;;;;;;;;5092115;28;20051;-80
2022/06/18 04:50:18;;;;;;;7.82;3.22;;;;;;;;;;5091301;28;20028;-79
2022/06/18 04:52:43;;;;;;;13.35;3.60;;;;;;;;;;5091997;28;20020;-77
2022/06/18 04:55:09;;;;;;;11.95;3.55;;;;;;;;;;5092258;28;20027;-80
2022/06/18 04:57:34;;;;;;;12.02;3.33;;;;;;;;;;5092019;28;20020;-80
2022/06/18 05:00:00;;;;;;;12.65;3.60;;;;;;;;;;5092290;28;20032;-80
2022/06/18 05:02:29;;;;;;;12.25;3.25;;;;;;;;;;5091829;28;20016;-81
2022/06/18 05:04:55;;;;;;;8.73;3.30;;;;;;;;;;5091991;28;20024;-81
2022/06/18 05:07:21;;;;;;;15.00;3.47;;;;;;;;;;5091446;28;20024;-81
2022/06/18 05:09:48;;;;;;;12.65;3.55;;;;;;;;;;5091588;28;20030;-79
2022/06/18 05:12:13;;;;;;;15.55;3.75;;;;;;;;;;5092159;28;20024;-80
2022/06/18 05:14:39;;;;;;;15.23;3.38;;;;;;;;;;5091868;28;20020;-79
2022/06/18 05:17:09;;;;;;;9.05;3.40;;;;;;;;;;5091476;28;20464;-81
2022/06/18 05:19:34;;;;;;;14.50;3.38;;;;;;;;;;5091520;28;20027;-80
2022/06/18 05:22:01;;;;;;;8.43;3.30;;;;;;;;;;5091466;28;20028;-81
2022/06/18 05:24:27;;;;;;;13.50;3.60;;;;;;;;;;5091542;28;20035;-75
2022/06/18 05:26:55;;;;;;;13.75;3.60;;;;;;;;;;5091538;28;20065;-77
2022/06/18 05:29:21;;;;;;;13.13;3.33;;;;;;;;;;5091216;28;20036;-80
2022/06/18 05:31:47;;;;;;;10.38;3.22;;;;;;;;;;5091627;28;20035;-79
2022/06/18 05:34:13;;;;;;;13.13;3.72;;;;;;;;;;5073113;28;20162;-73
2022/06/18 05:36:39;;;;;;;12.52;3.38;;;;;;;;;;5091053;28;20032;-80
2022/06/18 05:39:06;;;;;;;12.50;3.47;;;;;;;;;;5091034;28;20361;-79
2022/06/18 05:41:32;;;;;;;9.88;3.70;;;;;;;;;;5091318;28;20035;-73
2022/06/18 05:43:57;;;;;;;14.90;3.80;;;;;;;;;;5090985;28;20024;-73
2022/06/18 05:46:23;;;;;;;10.10;3.40;;;;;;;;;;5091121;28;20098;-73
2022/06/18 05:48:49;;;;;;;10.82;4.00;;;;;;;;;;5090612;28;20056;-74
2022/06/18 05:51:15;;;;;;;13.00;3.58;;;;;;;;;;5090667;28;20035;-74
2022/06/18 05:53:41;;;;;;;9.65;3.75;;;;;;;;;;5090859;28;20561;-79
2022/06/18 05:56:06;;;;;;;10.55;3.55;;;;;;;;;;5091129;28;20031;-77
2022/06/18 05:58:32;;;;;;;11.32;3.63;;;;;;;;;;5090592;28;20034;-79
2022/06/18 06:00:57;;;;;;;9.52;3.30;;;;;;;;;;5091019;28;20050;-78
2022/06/18 06:03:23;;;;;;;10.30;3.30;;;;;;;;;;5090688;28;20540;-76
2022/06/18 06:05:49;;;;;;;13.20;3.40;;;;;;;;;;5090258;28;20071;-75
2022/06/18 06:08:15;;;;;;;8.45;3.53;;;;;;;;;;5090743;28;20042;-79
2022/06/18 06:13:27;;;;;;;16.70;3.97;;;;;;;;;;5090997;28;20031;-79
2022/06/18 06:15:54;;;;;;;12.50;3.63;;;;;;;;;;5090319;28;20082;-74
2022/06/18 06:18:21;;;;;;;10.10;3.40;;;;;;;;;;5090241;28;20032;-74
2022/06/18 06:20:49;;;;;;;10.68;3.40;;;;;;;;;;5089921;28;20351;-78
2022/06/18 06:23:15;;;;;;;12.77;3.53;;;;;;;;;;5090422;28;20048;-78
2022/06/18 06:25:43;;;;;;;11.40;3.30;;;;;;;;;;5090378;28;20077;-79
2022/06/18 06:28:20;;;;;;;12.55;3.67;;;;;;;;;;5090181;28;20027;-75
2022/06/18 06:30:45;;;;;;;8.25;3.40;;;;;;;;;;5090162;28;20543;-81
2022/06/18 06:33:11;;;;;;;11.55;3.15;;;;;;;;;;5090396;28;20108;-80
2022/06/18 06:35:36;;;;;;;12.20;3.22;;;;;;;;;;5089747;28;20128;-81
2022/06/18 06:38:03;;;;;;;8.55;3.00;;;;;;;;;;5089831;28;20638;-80
2022/06/18 06:40:30;;;;;;;11.73;3.53;;;;;;;;;;5089903;28;20028;-76
2022/06/18 06:42:58;;;;;;;9.13;3.50;;;;;;;;;;5090154;28;20059;-80
2022/06/18 06:45:28;;;;;;;14.65;3.47;;;;;;;;;;5089977;28;20028;-80
2022/06/18 06:47:54;;;;;;;10.05;3.15;;;;;;;;;;5089836;28;20131;-80
2022/06/18 06:50:21;;;;;;;9.60;3.47;;;;;;;;;;5089858;28;20503;-80
2022/06/18 06:52:50;;;;;;;9.82;2.90;;;;;;;;;;5089949;28;20028;-81
2022/06/18 06:57:59;;;;;;;13.68;2.80;;;;;;;;;;5089589;28;20085;-80
2022/06/18 07:00:24;;;;;;;11.75;2.90;;;;;;;;;;5089829;28;20032;-77
2022/06/18 07:02:50;;;;;;;15.73;3.00;;;;;;;;;;5090075;28;20031;-74
2022/06/18 07:05:18;;;;;;;16.45;2.88;;;;;;;;;;5089813;28;20552;-74
2022/06/18 07:07:43;;;;;;;9.75;2.72;;;;;;;;;;5089403;28;20063;-75
2022/06/18 07:10:10;;;;;;;13.43;2.95;;;;;;;;;;5089520;28;20056;-75
2022/06/18 07:12:38;;;;;;;8.40;2.80;;;;;;;;;;5089332;28;20028;-77
2022/06/18 07:15:04;;;;;;;14.68;3.05;;;;;;;;;;5089332;28;20020;-75
2022/06/18 07:17:29;;;;;;;8.57;2.58;;;;;;;;;;5089528;28;20032;-77
2022/06/18 07:19:55;;;;;;;8.52;2.60;;;;;;;;;;5089495;28;20093;-74
2022/06/18 07:22:20;;;;;;;16.95;2.67;;;;;;;;;;5089255;28;20027;-74
2022/06/18 07:24:46;;;;;;;12.05;2.25;;;;;;;;;;5089496;28;20165;-74
2022/06/18 07:27:11;;;;;;;8.85;2.40;;;;;;;;;;5089661;28;20471;-74
2022/06/18 07:29:37;;;;;;;10.10;2.72;;;;;;;;;;5089252;28;20031;-74
2022/06/18 07:32:14;;;;;;;9.88;2.80;;;;;;;;;;5089552;28;20027;-74
2022/06/18 07:34:39;;;;;;;6.72;2.45;;;;;;;;;;5089300;28;20562;-76
2022/06/18 07:37:05;;;;;;;13.55;2.70;;;;;;;;;;5089090;28;20021;-74
2022/06/18 07:39:30;;;;;;;7.07;2.30;;;;;;;;;;5089215;28;20467;-75
2022/06/18 07:41:56;;;;;;;15.25;2.60;;;;;;;;;;5089586;28;20431;-74
2022/06/18 07:44:23;;;;;;;11.95;2.60;;;;;;;;;;5089588;28;20028;-74
2022/06/18 07:46:51;;;;;;;6.30;2.55;;;;;;;;;;5089451;28;20023;-74
2022/06/18 07:49:17;;;;;;;7.97;2.35;;;;;;;;;;5089235;28;20063;-75
2022/06/18 07:51:43;;;;;;;12.13;2.50;;;;;;;;;;5088906;28;20024;-74
2022/06/18 07:54:13;;;;;;;5.65;2.30;;;;;;;;;;5089238;28;20055;-76
2022/06/18 07:56:38;;;;;;;14.00;2.67;;;;;;;;;;5089004;28;20483;-75
2022/06/18 07:59:04;;;;;;;10.98;2.25;;;;;;;;;;5089136;28;20027;-74
2022/06/18 08:01:29;;;;;;;15.85;2.70;;;;;;;;;;5089117;28;20051;-72
2022/06/18 08:03:55;;;;;;;19.40;2.95;;;;;;;;;;5089460;28;20081;-74
2022/06/18 08:06:20;;;;;;;10.75;2.40;;;;;;;;;;5088705;28;20103;-75
2022/06/18 08:08:45;;;;;;;7.88;2.22;;;;;;;;;;5089172;28;20388;-74
2022/06/18 08:11:15;;;;;;;11.27;2.50;;;;;;;;;;5088912;28;20064;-74
2022/06/18 08:13:41;;;;;;;16.95;2.75;;;;;;;;;;5089110;28;20034;-78
2022/06/18 08:16:08;;;;;;;13.35;2.75;;;;;;;;;;5089096;28;20076;-78
2022/06/18 08:18:34;;;;;;;8.38;2.40;;;;;;;;;;5089233;28;20059;-78
2022/06/18 08:21:13;;;;;;;9.30;2.33;;;;;;;;;;5088796;28;20483;-75
2022/06/18 08:23:39;;;;;;;12.93;2.60;;;;;;;;;;5089413;28;20020;-79
2022/06/18 08:26:06;;;;;;;6.57;2.38;;;;;;;;;;5091741;28;20106;-73
2022/06/18 08:28:33;;;;;;;10.80;2.33;;;;;;;;;;5092518;28;20055;-74
2022/06/18 08:31:01;;;;;;;7.45;2.50;;;;;;;;;;5092156;28;20024;-76
2022/06/18 08:33:28;;;;;;;9.50;2.50;;;;;;;;;;5092579;28;20030;-76
2022/06/18 08:35:53;;;;;;;10.80;2.50;;;;;;;;;;5091896;28;20028;-76
2022/06/18 08:38:19;;;;;;;17.65;2.80;;;;;;;;;;5092396;28;20081;-74
2022/06/18 08:40:50;;;;;;;13.70;2.25;;;;;;;;;;5092431;28;20104;-78
2022/06/18 08:43:34;;;;;;;13.02;2.35;;;;;;;;;;5092445;28;20364;-75
2022/06/18 08:46:21;;;;;;;16.92;2.80;;;;;;;;;;5091963;28;20024;-76
2022/06/18 08:49:07;;;;;;;12.50;2.50;;;;;;;;;;5091886;28;20076;-74
2022/06/18 08:51:54;;;;;;;9.77;2.35;;;;;;;;;;5091604;28;20488;-73
2022/06/18 08:54:33;;;;;;;11.50;2.40;;;;;;;;;;5092049;28;20081;-74
2022/06/18 08:57:14;;;;;;;13.80;2.38;;;;;;;;;;5091965;28;20039;-73
2022/06/18 09:00:05;;;;;;;10.35;2.38;;;;;;;;;;5091819;28;20035;-75
2022/06/18 09:02:33;;;;;;;11.05;2.63;;;;;;;;;;5091777;28;20021;-73
2022/06/18 09:05:10;;;;;;;10.15;2.65;;;;;;;;;;5092113;28;20067;-77
2022/06/18 09:08:03;;;;;;;12.48;2.65;;;;;;;;;;5091485;28;20564;-73
2022/06/18 09:10:42;;;;;;;15.55;2.80;;;;;;;;;;5091731;28;20039;-73
2022/06/18 09:13:16;;;;;;;16.85;2.92;;;;;;;;;;5092845;28;20117;-73
2022/06/18 09:15:49;;;;;;;13.75;2.45;;;;;;;;;;5091918;28;20468;-73
2022/06/18 09:18:35;;;;;;;13.52;2.60;;;;;;;;;;5091757;28;20187;-74
2022/06/18 09:21:07;;;;;;;9.70;2.65;;;;;;;;;;5091274;28;20020;-73
2022/06/18 09:23:40;;;;;;;10.65;2.40;;;;;;;;;;5073782;28;20567;-75
2022/06/18 09:26:16;;;;;;;12.85;2.63;;;;;;;;;;5091883;28;20028;-73
2022/06/18 09:28:48;;;;;;;11.73;2.55;;;;;;;;;;5091717;28;20020;-76
2022/06/18 09:31:22;;;;;;;16.00;2.65;;;;;;;;;;5094893;28;20121;-73
2022/06/18 09:33:57;;;;;;;15.25;2.53;;;;;;;;;;5096274;28;20051;-77
2022/06/18 09:36:33;;;;;;;16.75;2.63;;;;;;;;;;5100507;28;20023;-79
2022/06/18 09:39:11;;;;;;;9.43;2.38;;;;;;;;;;5106591;28;20012;-79
2022/06/18 09:42:00;;;;;;;6.07;2.33;;;;;;;;;;5107651;28;20082;-79
2022/06/18 09:44:35;;;;;;;11.98;2.40;;;;;;;;;;5098394;28;20024;-79
2022/06/18 09:47:07;;;;;;;12.00;2.58;;;;;;;;;;5097494;28;20028;-79
2022/06/18 09:49:33;;;;;;;15.38;2.30;;;;;;;;;;5098046;28;20028;-80
2022/06/18 09:52:07;;;;;;;7.55;2.40;;;;;;;;;;5091821;28;20028;-80
2022/06/18 09:54:39;;;;;;;9.98;2.30;;;;;;;;;;5093019;28;20016;-78
2022/06/18 09:57:06;;;;;;;11.13;3.03;;;;;;;;;;5092568;28;20028;-76
2022/06/18 09:59:33;;;;;;;11.73;2.65;;;;;;;;;;5091621;28;20049;-77
2022/06/18 10:02:00;;;;;;;9.77;2.47;;;;;;;;;;5091382;28;20032;-74
2022/06/18 10:07:23;;;;;;;19.73;2.67;;;;;;;;;;5090377;28;20043;-75
2022/06/18 10:09:58;;;;;;;11.18;2.25;;;;;;;;;;5090456;28;20464;-76
2022/06/18 10:12:40;;;;;;;15.10;2.30;;;;;;;;;;5072308;28;20123;-73
2022/06/18 10:15:09;;;;;;;11.65;2.55;;;;;;;;;;5090675;28;20503;-73
2022/06/18 10:17:59;;;;;;;7.90;2.40;;;;;;;;;;5090718;28;20117;-74
2022/06/18 10:20:48;;;;;;;7.32;2.38;;;;;;;;;;5090144;28;20511;-74
2022/06/18 10:23:38;;;;;;;8.93;2.50;;;;;;;;;;5090222;28;20031;-74
2022/06/18 10:26:05;;;;;;;;;;;;;;;;;;5090787;28;20483;-73
2022/06/18 10:28:55;;;;;;;9.65;2.50;;;;;;;;;;5090301;28;19912;-73
2022/06/18 10:31:23;;;;;;;12.75;2.88;;;;;;;;;;5090138;28;20423;-73
2022/06/18 10:33:51;;;;;;;15.43;3.00;;;;;;;;;;5090306;28;20101;-74
2022/06/18 10:36:35;;;;;;;13.65;2.60;;;;;;;;;;5090113;28;20054;-79
2022/06/18 10:39:25;;;;;;;8.88;3.08;;;;;;;;;;5089918;28;20085;-74
2022/06/18 10:41:50;;;;;;;;;;;;;;;;;;5090479;28;20027;-73
2022/06/18 10:44:45;;;;;;;8.13;2.50;;;;;;;;;;5090140;28;19912;-73
2022/06/18 10:47:16;;;;;;;9.70;3.10;;;;;;;;;;5088853;28;20024;-79
2022/06/18 10:49:42;;;;;;;8.52;2.45;;;;;;;;;;5089719;28;20028;-79
2022/06/18 10:52:21;;;;;;;18.40;2.85;;;;;;;;;;5089519;28;20423;-80
2022/06/18 10:54:46;;;;;;;9.88;2.60;;;;;;;;;;5090411;28;20024;-80
2022/06/18 10:57:22;;;;;;;9.70;2.92;;;;;;;;;;5089735;28;20032;-80
2022/06/18 10:59:48;;;;;;;11.82;2.80;;;;;;;;;;5089932;28;20024;-78
2022/06/18 11:02:34;;;;;;;11.85;3.00;;;;;;;;;;5089629;28;20399;-78
2022/06/18 11:05:30;;;;;;;10.70;2.90;;;;;;;;;;5089658;28;20043;-79
2022/06/18 11:08:00;;;;;;;10.57;2.70;;;;;;;;;;5079038;28;20040;-76
2022/06/18 11:10:42;;;;;;;14.60;2.80;;;;;;;;;;5089729;28;20032;-80
2022/06/18 11:13:38;;;;;;;9.98;2.83;;;;;;;;;;5089499;28;20391;-79
2022/06/18 11:16:09;;;;;;;9.77;2.97;;;;;;;;;;5089924;28;20034;-74
2022/06/18 11:18:43;;;;;;;12.90;3.20;;;;;;;;;;5089516;28;20507;-80
2022/06/18 11:21:17;;;;;;;11.90;3.00;;;;;;;;;;5089395;28;20020;-79
2022/06/18 11:23:52;;;;;;;6.53;2.72;;;;;;;;;;5090029;28;20051;-80
2022/06/18 11:26:22;;;;;;;13.77;3.00;;;;;;;;;;5089916;28;20032;-80
2022/06/18 11:28:49;;;;;;;;;;;;;;;;;;5090164;28;20031;-79
2022/06/18 11:31:25;;;;;;;11.25;3.20;;;;;;;;;;5089923;28;20524;-80
2022/06/18 11:34:16;;;;;;;11.18;3.13;;;;;;;;;;5090162;28;20032;-80
2022/06/18 11:36:48;;;;;;;11.57;3.50;;;;;;;;;;5081181;28;20074;-79
2022/06/18 11:39:32;;;;;;;12.57;3.17;;;;;;;;;;5071203;28;20028;-74
2022/06/18 11:42:08;;;;;;;8.95;2.90;;;;;;;;;;5089141;28;20028;-74
2022/06/18 11:45:01;;;;;;;8.13;2.90;;;;;;;;;;5089135;28;20031;-73
2022/06/18 11:47:32;;;;;;;11.48;3.40;;;;;;;;;;5089021;28;20048;-78
2022/06/18 11:50:11;;;;;;;11.52;3.10;;;;;;;;;;5089272;28;20507;-74
2022/06/18 11:52:52;;;;;;;9.32;3.38;;;;;;;;;;5089038;28;20038;-78
2022/06/18 11:55:37;;;;;;;15.05;3.45;;;;;;;;;;5089465;28;20067;-78
2022/06/18 11:58:21;;;;;;;13.00;3.10;;;;;;;;;;5089134;28;20050;-73
2022/06/18 12:01:03;;;;;;;12.68;3.45;;;;;;;;;;5093022;28;20119;-74
2022/06/18 12:04:13;;;;;;;8.60;3.38;;;;;;;;;;5093269;28;20027;-75
2022/06/18 12:06:56;;;;;;;10.95;3.20;;;;;;;;;;5092825;28;20125;-74
2022/06/18 12:09:23;;;;;;;9.70;3.45;;;;;;;;;;5092863;28;20028;-76
2022/06/18 12:12:10;;;;;;;15.18;3.60;;;;;;;;;;5093141;28;20055;-74
2022/06/18 12:14:50;;;;;;;7.97;3.40;;;;;;;;;;5092815;28;20502;-75
2022/06/18 12:17:26;;;;;;;9.23;3.45;;;;;;;;;;5092956;28;20437;-77
2022/06/18 12:20:17;;;;;;;9.25;3.25;;;;;;;;;;5092777;28;20032;-74
2022/06/18 12:22:51;;;;;;;9.73;3.25;;;;;;;;;;5091679;28;20541;-77
2022/06/18 12:25:35;;;;;;;8.13;2.90;;;;;;;;;;5092818;28;20554;-74
2022/06/18 12:28:10;;;;;;;11.00;2.85;;;;;;;;;;5092727;28;20024;-77
2022/06/18 12:30:48;;;;;;;8.73;3.13;;;;;;;;;;5092909;28;20032;-73
2022/06/18 12:33:29;;;;;;;13.25;3.20;;;;;;;;;;5092540;28;20495;-77
2022/06/18 12:35:57;;;;;;;12.05;3.25;;;;;;;;;;5092315;28;20016;-74
2022/06/18 12:38:22;;;;;;;14.38;3.00;;;;;;;;;;5092385;28;20024;-77
2022/06/18 12:40:52;;;;;;;9.73;2.90;;;;;;;;;;5092244;28;20111;-75
2022/06/18 12:43:51;;;;;;;9.50;2.90;;;;;;;;;;5092294;28;20031;-79
2022/06/18 12:46:28;;;;;;;7.85;2.83;;;;;;;;;;5068351;28;20050;-78
2022/06/18 12:49:07;;;;;;;13.50;3.10;;;;;;;;;;5091892;28;20081;-74
2022/06/18 12:51:46;;;;;;;8.00;3.20;;;;;;;;;;5073670;28;20040;-74
2022/06/18 12:54:33;;;;;;;10.70;3.00;;;;;;;;;;5092013;28;20039;-74
2022/06/18 12:57:04;;;;;;;5.07;3.00;;;;;;;;;;5092133;28;20376;-74
2022/06/18 13:00:01;;;;;;;9.32;3.33;;;;;;;;;;5091929;28;20455;-73
2022/06/18 13:02:41;;;;;;;12.23;3.10;;;;;;;;;;5092003;28;20027;-73
2022/06/18 13:05:35;;;;;;;9.90;2.80;;;;;;;;;;5091604;28;20086;-74
2022/06/18 13:08:07;;;;;;;9.98;2.58;;;;;;;;;;5076859;28;20032;-79
2022/06/18 13:10:53;;;;;;;13.43;3.33;;;;;;;;;;5090884;28;20106;-74
2022/06/18 13:13:27;;;;;;;9.38;2.80;;;;;;;;;;5075560;28;20399;-74
2022/06/18 13:15:56;;;;;;;11.93;2.80;;;;;;;;;;5091893;28;20111;-76
2022/06/18 13:18:52;;;;;;;12.85;2.90;;;;;;;;;;5091516;28;20066;-76
2022/06/18 13:21:17;;;;;;;11.85;3.05;;;;;;;;;;5090877;28;20028;-74
2022/06/18 13:29:24;;;;;;;10.20;2.97;;;;;;;;;;5091388;28;20391;-74
2022/06/18 13:32:08;;;;;;;7.65;2.97;;;;;;;;;;5091431;28;20024;-73
2022/06/18 13:34:48;;;;;;;10.93;3.22;;;;;;;;;;5091251;28;20024;-73
2022/06/18 13:37:33;;;;;;;11.05;2.88;;;;;;;;;;5090832;28;20111;-75
2022/06/18 13:40:02;;;;;;;10.60;2.97;;;;;;;;;;5090748;28;20024;-74
2022/06/18 13:42:42;;;;;;;13.25;2.97;;;;;;;;;;5091184;28;20081;-73
2022/06/18 13:45:25;;;;;;;10.23;3.00;;;;;;;;;;5090917;28;20726;-73
2022/06/18 13:48:00;;;;;;;13.10;3.20;;;;;;;;;;5091059;28;20067;-73
2022/06/18 13:50:41;;;;;;;12.20;2.83;;;;;;;;;;5072054;28;20036;-79
2022/06/18 13:53:07;;;;;;;9.35;2.90;;;;;;;;;;5091044;28;20028;-74
2022/06/18 13:55:39;;;;;;;9.85;2.72;;;;;;;;;;5072295;28;20257;-74
2022/06/18 13:58:18;;;;;;;10.82;2.88;;;;;;;;;;5090842;28;20077;-75
2022/06/18 14:00:43;;;;;;;16.17;2.70;;;;;;;;;;5090527;28;20032;-78
2022/06/18 14:03:17;;;;;;;10.13;2.90;;;;;;;;;;5090916;28;20061;-79
2022/06/18 14:05:45;;;;;;;11.27;3.03;;;;;;;;;;5090492;28;20538;-80
2022/06/18 14:08:29;;;;;;;11.65;3.05;;;;;;;;;;5090846;28;20032;-78
2022/06/18 14:10:58;;;;;;;17.85;3.50;;;;;;;;;;5090334;28;20024;-74
2022/06/18 14:13:25;;;;;;;12.25;3.00;;;;;;;;;;5055955;28;20495;-79
2022/06/18 14:16:04;;;;;;;11.43;3.00;;;;;;;;;;5090386;28;20024;-74
2022/06/18 14:18:32;;;;;;;14.00;3.28;;;;;;;;;;5090881;28;20111;-79
2022/06/18 14:21:10;;;;;;;13.77;3.30;;;;;;;;;;5089957;28;20085;-78
2022/06/18 14:23:41;;;;;;;11.77;2.95;;;;;;;;;;5090953;28;20036;-79
2022/06/18 14:26:10;;;;;;;15.90;3.28;;;;;;;;;;5090727;28;20107;-80
2022/06/18 14:28:40;;;;;;;9.48;2.80;;;;;;;;;;5090711;28;20016;-78
2022/06/18 14:31:09;;;;;;;16.30;2.88;;;;;;;;;;5090160;28;20020;-78
2022/06/18 14:33:45;;;;;;;11.40;3.00;;;;;;;;;;5090385;28;20070;-80
2022/06/18 14:36:20;;;;;;;11.90;3.08;;;;;;;;;;5089768;28;20066;-74
2022/06/18 14:39:00;;;;;;;11.80;3.15;;;;;;;;;;5090329;28;20467;-74
2022/06/18 14:41:39;;;;;;;;;;;;;;;;;;5090310;28;20391;-73
2022/06/18 14:44:20;;;;;;;18.20;3.28;;;;;;;;;;5090290;28;19938;-76
2022/06/18 14:47:03;;;;;;;18.00;2.88;;;;;;;;;;5090246;28;20036;-78
2022/06/18 14:49:41;;;;;;;11.80;2.95;;;;;;;;;;5089508;28;20032;-75
2022/06/18 14:52:31;;;;;;;18.08;2.88;;;;;;;;;;5089671;28;20031;-74
2022/06/18 14:54:58;;;;;;;9.25;3.08;;;;;;;;;;5089791;28;20047;-75
2022/06/18 14:57:48;;;;;;;13.05;2.80;;;;;;;;;;5089895;28;20031;-75
2022/06/18 15:00:52;;;;;;;9.35;3.15;;;;;;;;;;5089634;28;20081;-73
2022/06/18 15:03:20;;;;;;;9.60;2.63;;;;;;;;;;5088449;28;20468;-74
2022/06/18 15:05:54;;;;;;;10.25;2.80;;;;;;;;;;5089202;28;20032;-74
2022/06/18 15:08:19;;;;;;;10.35;2.80;;;;;;;;;;5089704;28;20032;-73
2022/06/18 15:10:51;;;;;;;9.85;2.22;;;;;;;;;;5089171;28;20565;-79
2022/06/18 15:13:17;;;;;;;10.93;2.38;;;;;;;;;;5089689;28;20106;-74
2022/06/18 15:16:16;;;;;;;8.05;2.80;;;;;;;;;;5089455;28;20070;-79
2022/06/18 15:21:08;;;;;;;9.50;2.78;;;;;;;;;;5089304;28;20100;-72
2022/06/18 15:26:17;;;;;;;10.50;2.55;;;;;;;;;;5089763;28;20031;-75
2022/06/18 15:28:45;;;;;;;7.18;2.40;;;;;;;;;;5089704;28;20111;-75